Time;durP1;ratioP1;P1;durP2;ratioP2;P2;SDS_P1;SDS_P2;PMS_P1;PMS_P2;Temp;Humidity;BMP_temperature;BMP_pressure;BME280_temperature;BME280_humidity;BME280_pressure;Samples;Min_cycle;Max_cycle;Signal;HPM_P1;HPM_P2
2023/06/23 00:00:22;;;;;;;8.65;6.10;;;25.10;1.00;;;;;;5215174;28;20035;-71
2023/06/23 00:02:54;;;;;;;8.77;6.95;;;25.10;14.70;;;;;;5188021;28;20044;-71
2023/06/23 00:05:27;;;;;;;11.77;6.50;;;25.20;1.00;;;;;;5197369;28;20065;-72
2023/06/23 00:07:59;;;;;;;12.10;6.63;;;25.30;1.00;;;;;;5201202;28;20033;-71
2023/06/23 00:10:30;;;;;;;9.60;6.65;;;25.30;1.00;;;;;;5167114;28;20040;-71
2023/06/23 00:13:02;;;;;;;8.82;6.30;;;25.30;1.00;;;;;;5167061;28;20037;-71
2023/06/23 00:15:34;;;;;;;11.88;8.02;;;25.40;1.00;;;;;;5164162;28;20045;-72
2023/06/23 00:18:05;;;;;;;9.15;6.47;;;25.30;1.00;;;;;;5213181;28;20035;-72
2023/06/23 00:20:39;;;;;;;13.13;6.78;;;25.40;1.00;;;;;;5220806;28;20039;-73
2023/06/23 00:23:11;;;;;;;13.02;6.35;;;25.30;1.00;;;;;;5186207;28;20597;-71
2023/06/23 00:25:42;;;;;;;9.50;5.90;;;25.30;1.00;;;;;;5203039;28;20046;-72
2023/06/23 00:28:16;;;;;;;12.82;6.13;;;25.30;1.00;;;;;;5198204;28;20038;-71
2023/06/23 00:30:47;;;;;;;11.20;6.20;;;25.40;1.00;;;;;;5197711;28;20044;-71
2023/06/23 00:33:19;;;;;;;9.85;6.85;;;25.40;1.00;;;;;;5221213;28;20037;-71
2023/06/23 00:35:51;;;;;;;10.52;6.53;;;25.30;1.00;;;;;;5186783;28;20543;-73
2023/06/23 00:38:24;;;;;;;10.30;6.35;;;25.30;1.00;;;;;;5221048;28;20199;-72
2023/06/23 00:40:59;;;;;;;16.10;7.30;;;25.30;1.00;;;;;;5187855;28;20340;-73
2023/06/23 00:43:31;;;;;;;11.88;6.03;;;25.20;1.00;;;;;;5186940;28;20033;-72
2023/06/23 00:46:16;;;;;;;10.27;6.00;;;25.10;1.00;;;;;;5201973;28;20409;-73
2023/06/23 00:48:48;;;;;;;9.85;6.40;;;25.10;1.00;;;;;;5201584;28;20340;-72
2023/06/23 00:51:23;;;;;;;10.75;6.60;;;25.10;1.00;;;;;;5183704;28;20223;-72
2023/06/23 00:53:58;;;;;;;13.65;7.00;;;25.20;1.00;;;;;;5182229;28;20501;-72
2023/06/23 00:56:31;;;;;;;9.15;6.53;;;25.30;1.00;;;;;;5185992;28;20036;-72
2023/06/23 00:59:03;;;;;;;11.77;6.28;;;25.50;1.00;;;;;;5202877;28;20086;-71
2023/06/23 01:01:37;;;;;;;10.27;6.30;;;25.70;1.00;;;;;;5211472;22;20821;-85
2023/06/23 01:04:09;;;;;;;9.18;5.32;;;25.80;1.00;;;;;;5191701;28;20052;-86
2023/06/23 01:06:56;;;;;;;7.13;5.13;;;25.90;1.00;;;;;;5186479;28;20020;-86
2023/06/23 01:09:53;;;;;;;9.25;5.07;;;26.10;99.90;;;;;;5203950;28;20187;-87
2023/06/23 01:12:39;;;;;;;7.50;4.90;;;26.20;99.90;;;;;;5189972;28;20031;-86
2023/06/23 01:19:08;;;;;;;7.93;4.60;;;26.50;99.90;;;;;;5227685;28;20025;-88
2023/06/23 01:22:44;;;;;;;10.57;5.53;;;26.50;99.90;;;;;;5208199;28;20029;-87
2023/06/23 01:25:33;;;;;;;5.40;4.47;;;26.40;99.90;;;;;;5130127;28;20039;-86
2023/06/23 01:28:43;;;;;;;8.38;4.45;;;26.40;99.90;;;;;;5154044;28;20037;-88
2023/06/23 01:32:02;;;;;;;7.32;3.67;;;26.40;99.90;;;;;;5134995;28;20035;-86
2023/06/23 01:34:45;;;;;;;10.07;3.63;;;26.40;3.50;;;;;;5107062;28;20030;-86
2023/06/23 01:37:32;;;;;;;7.80;3.63;;;26.50;1.00;;;;;;5112099;28;20035;-87
2023/06/23 01:40:16;;;;;;;4.35;2.40;;;26.50;1.00;;;;;;5120313;28;20041;-87
2023/06/23 01:43:07;;;;;;;5.05;2.58;;;26.50;1.00;;;;;;5152057;28;20027;-88
2023/06/23 01:46:25;;;;;;;8.63;3.38;;;26.50;1.00;;;;;;5158427;28;20115;-88
2023/06/23 01:49:23;;;;;;;5.38;2.65;;;26.40;1.00;;;;;;5185721;22;20025;-75
2023/06/23 01:51:56;;;;;;;6.55;3.00;;;26.30;99.90;;;;;;5199557;28;20131;-72
2023/06/23 01:54:31;;;;;;;4.80;2.00;;;26.30;99.90;;;;;;5196793;28;20045;-71
2023/06/23 01:57:07;;;;;;;8.73;2.45;;;26.30;99.90;;;;;;5172749;28;20036;-71
2023/06/23 01:59:41;;;;;;;3.28;1.83;;;26.30;34.20;;;;;;5187546;28;20037;-70
2023/06/23 02:02:15;;;;;;;3.07;1.87;;;26.20;1.00;;;;;;5181863;28;20033;-71
2023/06/23 02:04:49;;;;;;;4.38;2.33;;;26.20;1.00;;;;;;5157599;28;20275;-73
2023/06/23 02:07:21;;;;;;;5.22;2.15;;;26.10;1.00;;;;;;5195106;28;20040;-71
2023/06/23 02:09:58;;;;;;;5.68;2.10;;;26.00;1.00;;;;;;5169105;28;20055;-72
2023/06/23 02:12:31;;;;;;;5.22;1.85;;;26.00;1.00;;;;;;5185183;28;20040;-72
2023/06/23 02:15:06;;;;;;;5.72;1.98;;;25.90;1.00;;;;;;5203040;28;20037;-74
2023/06/23 02:17:40;;;;;;;5.78;2.40;;;25.90;1.00;;;;;;5201018;28;20029;-72
2023/06/23 02:20:16;;;;;;;7.28;2.10;;;25.80;1.00;;;;;;5202027;28;20033;-71
2023/06/23 02:22:49;;;;;;;5.75;2.55;;;25.70;1.00;;;;;;5202864;28;20033;-71
2023/06/23 02:25:22;;;;;;;8.75;2.28;;;25.60;1.00;;;;;;5186071;28;20029;-73
2023/06/23 02:27:54;;;;;;;3.92;2.60;;;25.60;1.00;;;;;;5199078;28;20037;-73
2023/06/23 02:30:26;;;;;;;4.93;2.42;;;25.50;29.40;;;;;;5202506;28;20712;-73
2023/06/23 02:32:58;;;;;;;5.30;2.10;;;25.50;99.90;;;;;;5188075;28;20033;-72
2023/06/23 02:35:30;;;;;;;6.43;2.63;;;25.40;99.90;;;;;;5168097;28;20034;-72
2023/06/23 02:38:07;;;;;;;3.55;2.13;;;25.30;99.90;;;;;;5205472;28;20021;-72
2023/06/23 02:40:42;;;;;;;6.28;3.03;;;25.30;99.90;;;;;;5211112;28;20035;-72
2023/06/23 02:43:32;;;;;;;8.90;2.00;;;25.20;99.90;;;;;;5201879;28;20473;-73
2023/06/23 02:46:05;;;;;;;2.83;1.98;;;25.20;99.90;;;;;;5181775;28;20037;-74
2023/06/23 02:48:39;;;;;;;3.50;2.53;;;25.10;99.90;;;;;;5176313;28;20524;-72
2023/06/23 02:51:16;;;;;;;3.15;2.20;;;25.10;99.90;;;;;;5185490;28;20041;-72
2023/06/23 02:54:08;;;;;;;4.85;2.35;;;25.10;99.90;;;;;;5192131;28;20034;-72
2023/06/23 02:56:42;;;;;;;4.50;2.20;;;25.00;99.90;;;;;;5209127;28;20025;-72
2023/06/23 02:59:16;;;;;;;;;;;25.00;99.90;;;;;;5188968;28;20056;-72
2023/06/23 03:01:53;;;;;;;5.97;2.65;;;24.90;99.90;;;;;;5182704;28;19908;-71
2023/06/23 03:04:24;;;;;;;5.35;2.80;;;24.90;99.90;;;;;;5157325;28;20033;-71
2023/06/23 03:06:56;;;;;;;5.72;2.53;;;24.90;99.90;;;;;;5169936;28;20046;-71
2023/06/23 03:09:28;;;;;;;3.05;2.10;;;24.80;99.90;;;;;;5186216;28;20038;-72
2023/06/23 03:11:59;;;;;;;5.10;1.90;;;24.80;99.90;;;;;;5202246;28;20037;-71
2023/06/23 03:14:31;;;;;;;3.20;2.17;;;24.80;99.90;;;;;;5189373;28;20040;-71
2023/06/23 03:17:22;;;;;;;2.90;1.80;;;24.80;99.90;;;;;;5187514;28;20065;-71
2023/06/23 03:20:06;;;;;;;4.82;2.33;;;24.70;99.90;;;;;;5188878;28;20028;-71
2023/06/23 03:22:44;;;;;;;6.82;2.67;;;24.60;99.90;;;;;;5212695;28;20039;-71
2023/06/23 03:25:28;;;;;;;3.75;1.77;;;24.70;99.90;;;;;;5220284;28;20047;-73
2023/06/23 03:28:04;;;;;;;7.78;2.20;;;24.60;99.90;;;;;;5218881;28;20037;-72
2023/06/23 03:30:44;;;;;;;3.72;2.00;;;24.60;99.90;;;;;;5184835;28;20524;-72
2023/06/23 03:33:24;;;;;;;2.40;1.88;;;24.60;99.90;;;;;;5216383;28;20025;-71
2023/06/23 03:36:00;;;;;;;3.08;1.90;;;24.60;99.90;;;;;;5204227;28;20048;-72
2023/06/23 03:38:40;;;;;;;5.28;2.03;;;24.50;99.90;;;;;;5200243;28;20045;-72
2023/06/23 03:41:13;;;;;;;4.03;1.38;;;24.50;99.90;;;;;;5222134;28;20374;-72
2023/06/23 03:43:54;;;;;;;5.75;1.98;;;24.50;99.90;;;;;;5202249;28;20039;-72
2023/06/23 03:46:45;;;;;;;8.15;2.10;;;24.40;99.90;;;;;;5213265;28;20043;-72
2023/06/23 03:49:21;;;;;;;3.25;1.88;;;24.40;99.90;;;;;;5182497;28;20091;-71
2023/06/23 03:51:58;;;;;;;3.80;1.55;;;24.40;99.90;;;;;;5204062;28;20538;-73
2023/06/23 03:54:35;;;;;;;6.65;1.90;;;24.30;99.90;;;;;;5201154;28;20037;-73
2023/06/23 03:57:10;;;;;;;2.25;1.75;;;24.30;99.90;;;;;;5196985;28;20032;-72
2023/06/23 03:59:42;;;;;;;3.92;1.48;;;24.20;99.90;;;;;;5164686;28;20037;-72
2023/06/23 04:02:17;;;;;;;2.60;1.55;;;24.20;99.90;;;;;;5167122;28;20037;-73
2023/06/23 04:04:53;;;;;;;2.15;1.85;;;24.10;99.90;;;;;;5189647;28;20061;-72
2023/06/23 04:07:27;;;;;;;3.55;1.67;;;24.10;99.90;;;;;;5191908;28;20611;-72
2023/06/23 04:10:04;;;;;;;3.90;1.80;;;24.10;99.90;;;;;;5203398;28;20037;-73
2023/06/23 04:12:38;;;;;;;3.58;1.77;;;24.10;99.90;;;;;;5199618;28;20056;-72
2023/06/23 04:15:15;;;;;;;4.45;1.65;;;24.00;99.90;;;;;;5215612;28;20025;-73
2023/06/23 04:17:48;;;;;;;5.35;2.10;;;24.00;99.90;;;;;;5203572;28;20037;-72
2023/06/23 04:20:22;;;;;;;2.00;1.50;;;24.00;99.90;;;;;;5186640;28;20391;-72
2023/06/23 04:22:58;;;;;;;3.60;1.52;;;24.00;99.90;;;;;;5163768;28;20048;-71
2023/06/23 04:25:29;;;;;;;3.22;1.70;;;24.10;99.90;;;;;;5192294;28;20029;-73
2023/06/23 04:28:05;;;;;;;4.15;1.80;;;24.10;99.90;;;;;;5165870;28;20037;-72
2023/06/23 04:30:38;;;;;;;6.35;1.83;;;24.00;99.90;;;;;;5197282;28;20033;-71
2023/06/23 04:33:09;;;;;;;3.90;1.65;;;23.90;99.90;;;;;;5164311;28;20029;-74
2023/06/23 04:35:41;;;;;;;2.13;1.55;;;23.90;99.90;;;;;;5178353;28;20224;-72
2023/06/23 04:38:15;;;;;;;3.83;1.83;;;24.00;99.90;;;;;;5172278;28;20037;-72
2023/06/23 04:40:51;;;;;;;4.90;1.65;;;23.90;99.90;;;;;;5166132;28;20021;-71
2023/06/23 04:43:29;;;;;;;6.72;1.80;;;23.90;99.90;;;;;;5187724;28;20046;-72
2023/06/23 04:46:21;;;;;;;1.58;1.48;;;23.90;99.90;;;;;;5179211;28;20041;-71
2023/06/23 04:49:15;;;;;;;4.43;2.05;;;23.90;99.90;;;;;;5155580;28;20054;-73
2023/06/23 04:51:54;;;;;;;14.55;2.75;;;23.90;1.00;;;;;;5183521;28;20049;-73
2023/06/23 04:54:38;;;;;;;3.55;1.38;;;23.90;1.00;;;;;;5186502;28;20029;-71
2023/06/23 04:57:19;;;;;;;6.73;1.63;;;23.90;1.00;;;;;;5193511;28;20037;-72
2023/06/23 04:59:54;;;;;;;5.53;1.60;;;23.90;1.00;;;;;;5215053;28;20276;-71
2023/06/23 05:02:26;;;;;;;;;;;23.90;1.00;;;;;;5188472;28;20033;-72
2023/06/23 05:05:01;;;;;;;2.22;1.48;;;24.00;1.00;;;;;;5189478;28;19921;-71
2023/06/23 05:07:36;;;;;;;2.15;1.75;;;24.10;1.00;;;;;;5202726;28;20032;-72
2023/06/23 05:10:09;;;;;;;4.00;1.58;;;24.00;99.90;;;;;;5204818;28;20039;-72
2023/06/23 05:12:43;;;;;;;3.63;1.55;;;24.10;1.00;;;;;;5171482;28;20052;-71
2023/06/23 05:15:20;;;;;;;5.07;1.98;;;24.20;99.90;;;;;;5173430;28;20632;-71
2023/06/23 05:17:55;;;;;;;5.63;1.67;;;24.30;1.00;;;;;;5213308;28;20044;-72
2023/06/23 05:20:31;;;;;;;3.38;1.63;;;24.30;1.00;;;;;;5187994;28;20048;-73
2023/06/23 05:23:05;;;;;;;2.30;1.85;;;24.20;1.00;;;;;;5211681;28;20021;-73
2023/06/23 05:25:37;;;;;;;1.67;1.45;;;24.20;1.00;;;;;;5208737;28;20029;-72
2023/06/23 05:28:11;;;;;;;3.90;1.40;;;24.20;1.00;;;;;;5204505;28;20029;-72
2023/06/23 05:30:44;;;;;;;2.97;1.60;;;24.30;1.00;;;;;;5206032;28;20037;-71
2023/06/23 05:33:17;;;;;;;2.03;1.65;;;24.40;1.00;;;;;;5185338;28;20052;-71
2023/06/23 05:35:54;;;;;;;5.25;1.92;;;24.30;1.00;;;;;;5206412;28;20037;-72
2023/06/23 05:38:30;;;;;;;2.05;1.60;;;24.30;1.00;;;;;;5203456;28;20306;-71
2023/06/23 05:41:04;;;;;;;4.70;1.60;;;24.30;1.00;;;;;;5176285;28;20033;-73
2023/06/23 05:43:35;;;;;;;3.90;1.95;;;24.30;1.00;;;;;;5188930;28;20147;-72
2023/06/23 05:46:16;;;;;;;3.85;2.25;;;24.40;1.00;;;;;;5181571;28;20032;-73
2023/06/23 05:48:53;;;;;;;2.72;1.50;;;24.40;1.00;;;;;;5168768;28;20071;-71
2023/06/23 05:51:31;;;;;;;2.08;1.27;;;24.20;1.00;;;;;;5182423;28;20040;-72
2023/06/23 05:54:09;;;;;;;2.58;1.50;;;24.10;1.00;;;;;;5223508;28;20027;-71
2023/06/23 05:57:03;;;;;;;2.38;1.63;;;24.30;1.00;;;;;;5206675;28;20041;-72
2023/06/23 05:59:44;;;;;;;1.67;1.33;;;24.50;99.90;;;;;;5210261;28;20021;-70
2023/06/23 06:02:24;;;;;;;2.83;1.83;;;24.50;99.90;;;;;;5199838;28;20037;-71
2023/06/23 06:04:59;;;;;;;1.70;1.30;;;24.60;99.90;;;;;;5157440;28;20049;-73
2023/06/23 06:07:32;;;;;;;2.67;1.52;;;24.70;99.90;;;;;;5180883;28;20033;-72
2023/06/23 06:10:07;;;;;;;2.50;1.70;;;24.80;99.90;;;;;;5189594;28;20280;-73
2023/06/23 06:12:40;;;;;;;2.17;1.65;;;24.90;99.90;;;;;;5189490;28;20045;-71
2023/06/23 06:15:16;;;;;;;4.47;1.67;;;24.90;99.90;;;;;;5204669;28;20059;-72
2023/06/23 06:17:49;;;;;;;3.42;1.77;;;24.90;99.90;;;;;;5189200;28;20506;-72
2023/06/23 06:20:23;;;;;;;1.83;1.40;;;24.70;99.90;;;;;;5189169;28;20040;-74
2023/06/23 06:22:59;;;;;;;3.22;1.95;;;24.70;99.90;;;;;;5205588;28;20029;-72
2023/06/23 06:25:35;;;;;;;2.90;1.48;;;24.80;99.90;;;;;;5203055;28;20259;-72
2023/06/23 06:28:11;;;;;;;2.90;1.40;;;24.90;99.90;;;;;;5205548;28;20047;-71
2023/06/23 06:30:43;;;;;;;3.25;1.50;;;24.70;99.90;;;;;;5192721;28;20025;-72
2023/06/23 06:33:16;;;;;;;2.10;1.27;;;24.80;99.90;;;;;;5183779;28;20041;-72
2023/06/23 06:35:51;;;;;;;2.92;1.17;;;24.80;99.90;;;;;;5205528;28;20100;-71
2023/06/23 06:38:29;;;;;;;1.60;1.40;;;24.80;99.90;;;;;;5196269;28;20471;-71
2023/06/23 06:41:03;;;;;;;1.70;1.58;;;25.10;91.50;;;;;;5181163;28;20047;-71
2023/06/23 06:43:36;;;;;;;;;;;25.30;1.00;;;;;;5185453;28;20040;-72
2023/06/23 06:46:09;;;;;;;1.70;1.50;;;25.40;1.00;;;;;;5181218;28;19909;-74
2023/06/23 06:48:47;;;;;;;1.95;1.27;;;25.10;1.00;;;;;;5213432;28;20366;-71
2023/06/23 06:51:18;;;;;;;1.77;1.38;;;25.30;1.00;;;;;;5215576;28;20037;-73
2023/06/23 06:53:50;;;;;;;2.28;1.30;;;25.30;1.00;;;;;;5146472;28;20056;-75
2023/06/23 06:56:24;;;;;;;1.85;1.00;;;25.40;1.00;;;;;;5199845;28;20044;-72
2023/06/23 06:58:56;;;;;;;0.98;0.95;;;25.30;1.00;;;;;;5193342;28;20067;-71
2023/06/23 07:01:29;;;;;;;2.15;1.13;;;25.30;1.00;;;;;;5171233;28;20040;-72
2023/06/23 07:04:04;;;;;;;1.35;1.20;;;25.30;1.00;;;;;;5171967;28;20037;-70
2023/06/23 07:06:36;;;;;;;2.35;1.17;;;25.50;1.00;;;;;;5201453;28;20399;-72
2023/06/23 07:09:08;;;;;;;1.50;1.08;;;25.50;1.00;;;;;;5188793;28;20406;-72
2023/06/23 07:11:39;;;;;;;3.25;1.33;;;25.50;1.00;;;;;;5214063;28;20027;-72
2023/06/23 07:14:10;;;;;;;4.53;1.60;;;25.30;1.00;;;;;;5207081;28;20378;-71
2023/06/23 07:16:41;;;;;;;2.15;1.10;;;25.50;1.00;;;;;;5180929;28;20055;-73
2023/06/23 07:19:13;;;;;;;1.25;0.98;;;25.90;1.00;;;;;;5177867;28;20055;-72
2023/06/23 07:21:44;;;;;;;1.67;1.08;;;25.80;1.00;;;;;;5203404;28;20041;-72
2023/06/23 07:24:18;;;;;;;1.40;1.25;;;25.70;99.90;;;;;;5212457;28;20067;-73
2023/06/23 07:26:49;;;;;;;1.20;1.10;;;25.60;99.90;;;;;;5184190;28;20041;-72
2023/06/23 07:29:23;;;;;;;2.58;1.35;;;25.70;1.00;;;;;;5167416;28;20041;-71
2023/06/23 07:31:54;;;;;;;1.63;1.00;;;25.70;99.90;;;;;;5182978;28;20037;-71
2023/06/23 07:34:26;;;;;;;1.30;1.00;;;25.70;99.90;;;;;;5203518;28;20024;-73
2023/06/23 07:37:00;;;;;;;1.60;1.17;;;25.70;1.00;;;;;;5184319;28;20047;-71
2023/06/23 07:39:31;;;;;;;1.42;1.00;;;25.70;1.00;;;;;;5187485;28;20040;-72
2023/06/23 07:42:05;;;;;;;0.85;0.80;;;25.80;1.00;;;;;;5184310;28;20218;-73
2023/06/23 07:44:37;;;;;;;2.50;1.08;;;25.80;1.00;;;;;;5194402;28;20355;-72
2023/06/23 07:47:09;;;;;;;1.88;1.10;;;25.80;1.00;;;;;;5214807;28;20028;-73
2023/06/23 07:49:45;;;;;;;1.48;1.08;;;25.70;1.00;;;;;;5190715;28;20037;-71
2023/06/23 07:52:16;;;;;;;1.02;0.93;;;25.70;1.00;;;;;;5181499;28;20044;-72
2023/06/23 07:54:47;;;;;;;1.10;0.95;;;25.70;1.00;;;;;;5176222;28;20043;-72
2023/06/23 07:57:20;;;;;;;1.08;0.82;;;25.70;1.00;;;;;;5199066;28;20160;-72
2023/06/23 07:59:51;;;;;;;1.65;0.93;;;25.80;1.00;;;;;;5165895;28;20029;-71
2023/06/23 08:02:25;;;;;;;1.33;0.82;;;25.90;1.00;;;;;;5190723;28;20100;-72
2023/06/23 08:04:56;;;;;;;1.67;1.00;;;25.80;1.00;;;;;;5191713;28;20049;-72
2023/06/23 08:07:27;;;;;;;1.92;1.00;;;26.00;1.00;;;;;;5189475;28;20029;-72
2023/06/23 08:10:00;;;;;;;0.80;0.68;;;26.00;99.90;;;;;;5182471;28;20242;-70
2023/06/23 08:12:32;;;;;;;0.68;0.68;;;26.10;99.90;;;;;;5166024;28;20326;-73
2023/06/23 08:15:07;;;;;;;0.70;0.70;;;26.20;99.90;;;;;;5174071;28;20451;-72
2023/06/23 08:17:38;;;;;;;2.05;1.00;;;26.40;99.90;;;;;;5174159;28;20168;-73
2023/06/23 08:20:10;;;;;;;1.42;1.33;;;26.70;99.90;;;;;;5189985;28;20037;-72
2023/06/23 08:22:42;;;;;;;1.67;0.75;;;26.50;99.90;;;;;;5189665;28;20048;-72
2023/06/23 08:25:14;;;;;;;1.85;1.20;;;27.00;99.90;;;;;;5207763;28;20029;-73
2023/06/23 08:27:46;;;;;;;1.50;1.10;;;27.10;99.90;;;;;;5198684;28;20208;-71
2023/06/23 08:30:28;;;;;;;1.42;0.98;;;27.00;72.30;;;;;;5195815;28;20036;-71
2023/06/23 08:33:00;;;;;;;3.65;1.65;;;27.10;45.50;;;;;;5201648;28;20144;-72
2023/06/23 08:35:32;;;;;;;0.80;0.80;;;27.20;1.00;;;;;;5188061;28;20041;-72
2023/06/23 08:38:05;;;;;;;1.40;0.90;;;27.10;1.00;;;;;;5205075;28;20037;-72
2023/06/23 08:40:36;;;;;;;1.48;0.88;;;27.20;1.00;;;;;;5159139;28;20033;-73
2023/06/23 08:43:12;;;;;;;2.35;0.90;;;27.70;1.00;;;;;;5194814;28;20032;-71
2023/06/23 08:45:50;;;;;;;1.67;1.20;;;28.00;1.00;;;;;;5177412;28;20226;-72
2023/06/23 08:48:26;;;;;;;0.80;0.80;;;27.90;1.00;;;;;;5198817;28;20043;-71
2023/06/23 08:51:00;;;;;;;1.33;1.20;;;28.20;1.00;;;;;;5212172;28;20030;-72
2023/06/23 08:53:31;;;;;;;0.80;0.80;;;28.00;99.90;;;;;;5199650;28;20040;-70
2023/06/23 08:56:05;;;;;;;1.17;0.70;;;27.70;99.90;;;;;;5214264;28;20037;-71
2023/06/23 08:58:36;;;;;;;;;;;27.50;99.90;;;;;;5183634;28;20047;-71
2023/06/23 09:01:08;;;;;;;1.25;1.00;;;27.30;99.90;;;;;;5214246;28;19912;-71
2023/06/23 09:03:39;;;;;;;1.80;1.05;;;27.30;99.90;;;;;;5185348;28;20029;-71
2023/06/23 09:06:11;;;;;;;1.23;1.13;;;27.40;99.90;;;;;;5181290;28;20053;-72
2023/06/23 09:08:42;;;;;;;1.00;0.82;;;27.30;99.90;;;;;;5180987;28;20365;-73
2023/06/23 09:11:14;;;;;;;1.13;0.80;;;27.20;99.90;;;;;;5202668;28;20035;-72
2023/06/23 09:13:47;;;;;;;0.70;0.70;;;27.50;99.90;;;;;;5206279;28;20421;-73
2023/06/23 09:16:19;;;;;;;0.95;0.70;;;27.90;99.90;;;;;;5186872;28;20344;-71
2023/06/23 09:18:52;;;;;;;1.15;0.90;;;28.40;99.90;;;;;;5201516;28;20041;-71
2023/06/23 09:21:24;;;;;;;0.80;0.80;;;28.20;54.70;;;;;;5202229;28;20034;-71
2023/06/23 09:24:06;;;;;;;1.13;0.90;;;28.40;1.00;;;;;;5179218;28;20055;-72
2023/06/23 09:26:51;;;;;;;1.02;0.80;;;28.60;1.00;;;;;;5204791;28;20547;-72
2023/06/23 09:29:26;;;;;;;1.00;0.75;;;28.30;1.00;;;;;;5204363;28;20029;-71
2023/06/23 09:31:59;;;;;;;;;;;28.00;1.00;;;;;;5197661;28;20203;-72
2023/06/23 09:34:34;;;;;;;1.13;0.77;;;27.80;1.00;;;;;;5204984;28;19921;-72
2023/06/23 09:37:09;;;;;;;0.77;0.60;;;28.20;1.00;;;;;;5185768;28;20075;-71
2023/06/23 09:39:44;;;;;;;1.20;0.80;;;28.50;1.00;;;;;;5178732;28;20620;-71
2023/06/23 09:42:15;;;;;;;0.75;0.75;;;28.30;1.00;;;;;;5212546;28;20398;-72
2023/06/23 09:44:49;;;;;;;0.55;0.52;;;28.30;1.00;;;;;;5181874;28;20037;-71
2023/06/23 09:47:20;;;;;;;0.63;0.60;;;28.20;1.00;;;;;;5173661;28;20105;-71
2023/06/23 09:49:51;;;;;;;0.57;0.55;;;28.40;1.00;;;;;;5182463;28;20045;-72
2023/06/23 09:52:26;;;;;;;14.05;1.23;;;28.20;1.00;;;;;;5198194;28;20037;-71
2023/06/23 09:54:57;;;;;;;0.50;0.50;;;28.20;1.00;;;;;;5190252;28;20579;-70
2023/06/23 09:57:30;;;;;;;0.70;0.60;;;28.50;1.00;;;;;;5191099;28;20045;-71
2023/06/23 10:00:08;;;;;;;0.85;0.70;;;28.70;1.00;;;;;;5188379;28;20300;-71
2023/06/23 10:02:40;;;;;;;0.68;0.60;;;29.10;1.00;;;;;;5196266;28;20125;-70
2023/06/23 10:05:14;;;;;;;0.60;0.60;;;29.00;1.00;;;;;;5155989;28;20047;-72
2023/06/23 10:07:45;;;;;;;;;;;28.90;1.00;;;;;;5201367;28;20037;-71
2023/06/23 10:10:16;;;;;;;1.02;0.70;;;28.70;1.00;;;;;;5194738;28;19915;-71
2023/06/23 10:12:50;;;;;;;0.50;0.50;;;28.70;1.00;;;;;;5181149;28;20028;-71
2023/06/23 10:15:23;;;;;;;0.75;0.75;;;28.80;1.00;;;;;;5195392;28;20034;-71
2023/06/23 10:17:58;;;;;;;0.52;0.52;;;29.20;1.00;;;;;;5182374;28;20379;-70
2023/06/23 10:20:30;;;;;;;0.70;0.70;;;28.90;1.00;;;;;;5191432;28;20033;-71
2023/06/23 10:23:01;;;;;;;0.57;0.57;;;28.70;1.00;;;;;;5193805;28;20052;-72
2023/06/23 10:25:38;;;;;;;0.68;0.47;;;28.90;1.00;;;;;;5201692;28;20029;-72
2023/06/23 10:28:12;;;;;;;6.57;0.98;;;28.90;1.00;;;;;;5199473;28;20040;-71
2023/06/23 10:30:48;;;;;;;2.28;0.60;;;29.30;1.00;;;;;;5178444;28;20037;-70
2023/06/23 10:33:21;;;;;;;0.70;0.70;;;29.20;1.00;;;;;;5206557;28;20036;-73
2023/06/23 10:35:54;;;;;;;0.80;0.60;;;28.90;1.00;;;;;;5177489;28;20110;-70
2023/06/23 10:38:27;;;;;;;2.65;1.00;;;28.90;1.00;;;;;;5173246;28;20025;-71
2023/06/23 10:41:01;;;;;;;0.60;0.60;;;29.40;1.00;;;;;;5189013;28;20025;-71
2023/06/23 10:43:33;;;;;;;0.60;0.60;;;29.40;1.00;;;;;;5198437;28;20703;-72
2023/06/23 10:46:05;;;;;;;0.68;0.68;;;30.00;1.00;;;;;;5195972;28;20654;-71
2023/06/23 10:48:37;;;;;;;0.40;0.40;;;29.60;1.00;;;;;;5179518;28;20037;-72
2023/06/23 10:51:13;;;;;;;3.05;0.93;;;29.40;1.00;;;;;;5205929;28;20033;-71
2023/06/23 10:54:07;;;;;;;0.50;0.50;;;29.60;1.00;;;;;;5179334;28;20375;-72
2023/06/23 10:56:44;;;;;;;0.77;0.57;;;30.20;1.00;;;;;;5197555;28;20063;-71
2023/06/23 10:59:25;;;;;;;0.40;0.40;;;30.00;1.00;;;;;;5202527;28;20031;-72
2023/06/23 11:01:59;;;;;;;0.50;0.50;;;29.60;1.00;;;;;;5177683;28;20051;-71
2023/06/23 11:04:34;;;;;;;0.40;0.40;;;29.90;99.90;;;;;;5194137;28;20065;-71
2023/06/23 11:07:08;;;;;;;0.55;0.55;;;30.20;1.00;;;;;;5169561;28;20025;-71
2023/06/23 11:09:44;;;;;;;0.77;0.50;;;30.30;1.00;;;;;;5198072;28;20460;-71
2023/06/23 11:12:31;;;;;;;0.32;0.32;;;30.10;1.00;;;;;;5199481;28;20474;-71
2023/06/23 11:15:16;;;;;;;0.60;0.60;;;29.10;1.00;;;;;;5195472;28;20048;-72
2023/06/23 11:17:53;;;;;;;0.82;0.80;;;28.70;1.00;;;;;;5179454;28;20033;-71
2023/06/23 11:20:28;;;;;;;0.40;0.40;;;28.30;1.00;;;;;;5197926;28;20041;-72
2023/06/23 11:23:05;;;;;;;0.40;0.40;;;28.80;1.00;;;;;;5184374;28;20056;-72
2023/06/23 11:25:52;;;;;;;0.40;0.40;;;28.90;1.00;;;;;;5185959;28;20593;-70
2023/06/23 11:28:39;;;;;;;0.25;0.25;;;27.90;99.90;;;;;;5187886;28;20044;-72
2023/06/23 11:31:21;;;;;;;0.55;0.52;;;27.30;99.90;;;;;;5194967;28;20032;-72
2023/06/23 11:33:55;;;;;;;1.27;0.85;;;26.30;99.90;;;;;;5204022;28;20041;-71
2023/06/23 11:36:29;;;;;;;0.50;0.43;;;26.40;99.90;;;;;;5173441;28;20403;-72
2023/06/23 11:39:00;;;;;;;1.50;1.25;;;26.40;99.90;;;;;;5183396;28;20048;-71
2023/06/23 11:41:32;;;;;;;0.40;0.40;;;26.20;99.90;;;;;;5189319;28;20026;-71
2023/06/23 11:44:03;;;;;;;0.40;0.40;;;26.10;1.00;;;;;;5211897;28;20036;-72
2023/06/23 11:46:37;;;;;;;0.55;0.52;;;25.50;99.90;;;;;;5199241;28;20451;-71
2023/06/23 11:49:13;;;;;;;0.50;0.40;;;25.20;1.00;;;;;;5173050;28;20037;-71
2023/06/23 11:51:45;;;;;;;0.47;0.47;;;25.00;1.00;;;;;;5199235;28;20040;-75
2023/06/23 11:54:20;;;;;;;0.30;0.30;;;24.80;1.00;;;;;;5186891;28;20037;-73
2023/06/23 11:56:51;;;;;;;0.75;0.50;;;24.60;1.00;;;;;;5170389;28;20263;-73
2023/06/23 11:59:25;;;;;;;0.73;0.40;;;24.60;1.00;;;;;;5203134;28;20032;-71
2023/06/23 12:01:59;;;;;;;0.55;0.52;;;24.50;1.00;;;;;;5176664;28;20383;-71
2023/06/23 12:04:31;;;;;;;0.47;0.47;;;24.30;1.00;;;;;;5174215;28;20053;-72
2023/06/23 12:07:03;;;;;;;0.63;0.63;;;24.30;1.00;;;;;;5189796;28;20040;-71
2023/06/23 12:09:39;;;;;;;0.50;0.50;;;24.20;1.00;;;;;;5172427;28;20495;-73
2023/06/23 12:12:11;;;;;;;0.40;0.40;;;24.10;1.00;;;;;;5195201;28;20053;-70
2023/06/23 12:14:43;;;;;;;0.60;0.47;;;23.90;1.00;;;;;;5214001;28;20028;-71
2023/06/23 12:17:15;;;;;;;0.70;0.70;;;23.70;1.00;;;;;;5162607;28;20476;-71
2023/06/23 12:19:46;;;;;;;0.90;0.75;;;23.50;1.00;;;;;;5183803;28;20437;-74
2023/06/23 12:22:18;;;;;;;0.80;0.80;;;23.40;1.00;;;;;;5179914;28;20037;-73
2023/06/23 12:24:54;;;;;;;1.30;0.70;;;23.20;1.00;;;;;;5172583;28;20057;-73
2023/06/23 12:27:25;;;;;;;1.20;0.82;;;23.10;1.00;;;;;;5180142;28;20051;-71
2023/06/23 12:30:14;;;;;;;2.20;1.15;;;23.00;1.00;;;;;;5171504;28;20048;-72
2023/06/23 12:32:46;;;;;;;1.45;1.05;;;22.80;1.00;;;;;;5174552;28;20037;-73
2023/06/23 12:35:22;;;;;;;0.82;0.82;;;22.60;99.90;;;;;;5162186;28;20050;-71
2023/06/23 12:37:54;;;;;;;1.23;1.08;;;22.60;99.90;;;;;;5181027;28;20195;-73
2023/06/23 12:40:35;;;;;;;1.17;1.02;;;22.60;99.90;;;;;;5168060;28;20053;-73
2023/06/23 12:43:09;;;;;;;1.00;0.90;;;22.40;99.90;;;;;;5184046;28;20037;-72
2023/06/23 12:45:40;;;;;;;1.02;0.93;;;21.80;1.00;;;;;;5172476;28;20052;-70
2023/06/23 12:48:12;;;;;;;1.17;1.08;;;21.20;99.90;;;;;;5208163;28;20025;-67
2023/06/23 12:50:46;;;;;;;1.70;1.45;;;20.70;1.00;;;;;;5179475;28;20535;-68
2023/06/23 12:53:22;;;;;;;;;;;20.30;1.00;;;;;;5177227;28;20041;-69
2023/06/23 12:55:53;;;;;;;1.40;1.30;;;19.90;1.00;;;;;;5185061;28;19913;-69
2023/06/23 12:58:24;;;;;;;2.40;1.55;;;19.70;1.00;;;;;;5175824;28;20045;-68
2023/06/23 13:00:56;;;;;;;2.03;1.67;;;19.50;1.00;;;;;;5183429;28;20046;-68
2023/06/23 13:03:27;;;;;;;2.00;1.90;;;19.30;1.00;;;;;;5179312;28;20033;-70
2023/06/23 13:05:59;;;;;;;2.78;1.55;;;19.20;1.00;;;;;;5168839;28;20076;-69
2023/06/23 13:08:30;;;;;;;1.80;1.70;;;19.10;1.00;;;;;;5205922;28;20033;-66
2023/06/23 13:11:01;;;;;;;3.47;2.05;;;19.00;1.00;;;;;;5174420;28;20037;-69
2023/06/23 13:13:32;;;;;;;2.17;2.00;;;19.00;1.00;;;;;;5206294;28;20033;-71
2023/06/23 13:16:07;;;;;;;2.38;2.17;;;18.90;1.00;;;;;;5163765;28;20108;-69
2023/06/23 13:18:39;;;;;;;2.30;1.70;;;18.90;1.00;;;;;;5204140;28;20047;-68
2023/06/23 13:21:10;;;;;;;2.15;1.95;;;18.90;1.00;;;;;;5175256;28;20048;-68
2023/06/23 13:23:42;;;;;;;2.88;1.70;;;18.80;63.90;;;;;;5181892;28;20043;-66
2023/06/23 13:26:13;;;;;;;1.98;1.80;;;18.70;16.60;;;;;;5148730;28;20061;-68
2023/06/23 13:28:47;;;;;;;1.80;1.70;;;18.70;6.10;;;;;;5199074;28;20040;-70
2023/06/23 13:31:18;;;;;;;2.80;2.20;;;18.70;57.60;;;;;;5176922;28;20053;-68
2023/06/23 13:33:49;;;;;;;2.25;1.77;;;18.70;51.60;;;;;;5179366;28;20043;-68
2023/06/23 13:36:20;;;;;;;2.53;2.10;;;18.70;40.60;;;;;;5171375;28;20108;-68
2023/06/23 13:38:52;;;;;;;1.83;1.67;;;18.60;95.00;;;;;;5193395;28;20029;-68